Amity, OR

10:12 AM PST on December 22, 2014 (GMT -0800)
Woodland Heights | Change Station
CLOSE
Current Station
Personal Weather Station
Location: Amity, OR
Elevation: 320 ft
Nearby Weather Stations
Active Advisory: Flood Warning Active Notice: Local Storm Report

Elev 320 ft 45.15 °N, 123.13 °W | Updated 0 second ago

Overcast
Overcast
50.2 °F
Feels Like 50.2 °F
N
0.0
Wind Variable Wind from WNW
Gusts 0.0 mph

Today
High -- | Low -- °F
--% Chance of Precip.
Yesterday
High -- | Low -- °F
Precip. -- in
7:48 AM 4:34 PM
New Moon, 1% visible
Pressure 30.40 in
Visibility 10.0 miles
Clouds Mostly Cloudy 500 ft
Dew Point 49 °F
Humidity 96%
Rainfall 0.00 in
Snow Depth Not available.
UV 1 out of 12
Pollen .30 out of 12
Air Quality Not available.
Flu Activity Not available.
SPECI KMMV 221801Z AUTO 00000KT 10SM BKN005 11/09 A3040 RMK AO2 T01110089

More Conditions Fewer Conditions

Pressure 30.40 in
Visibility 10.0 miles
Clouds Mostly Cloudy 500 ft
Dew Point 49 °F
Humidity 96%
Rainfall 0.00 in
Snow Depth Not available.
UV 1 out of 12
Pollen .30 out of 12
Air Quality Not available.
Flu Activity Not available.
SPECI KMMV 221801Z AUTO 00000KT 10SM BKN005 11/09 A3040 RMK AO2 T01110089

More Conditions Fewer Conditions

10-Day Weather Forecast

Almanac

Astronomy

Dec. 22, 2014 Rise Set
Actual Time
Civil Twilight
Nautical Twilight
Astronomical Twilight
Moon
Length of Visible Light
Length of Day
Tomorrow will be .
, % of the Moon is Illuminated

Today's Extremes

State Highs State Lows

Community

WunderPhotos

Upload Photos

1,779,663 photos uploaded!

WunderBlogs® & News

Nearby

Air Quality

  Air Quality AQ Index Pollutant
Not available.

Snow Depth

Station Depth Elevation

Earthquake Activity

City Distance Mag. Time & Date
Minimum magnitude displayed is 2.5.

Coastal Water Temperatures

Place Temperature

Nearby Weather Stations